Time;durP1;ratioP1;P1;durP2;ratioP2;P2;SDS_P1;SDS_P2;PMS_P1;PMS_P2;Temp;Humidity;BMP_temperature;BMP_pressure;BME280_temperature;BME280_humidity;BME280_pressure;Samples;Min_cycle;Max_cycle;Signal;HPM_P1;HPM_P2
2024/02/14 00:00:00;;;;;;;6.38;3.53;;;;;;;;;;10252593;28;20480;-61
2024/02/14 00:05:02;;;;;;;5.25;3.58;;;;;;;;;;10245149;28;20112;-61
2024/02/14 00:10:05;;;;;;;5.18;3.50;;;;;;;;;;10250084;28;20036;-64
2024/02/14 00:15:07;;;;;;;5.05;3.15;;;;;;;;;;10342912;28;20473;-63
2024/02/14 00:20:12;;;;;;;5.10;3.33;;;;;;;;;;10411730;28;20132;-62
2024/02/14 00:25:13;;;;;;;7.68;3.65;;;;;;;;;;10391046;28;20113;-62
2024/02/14 00:30:14;;;;;;;8.07;3.55;;;;;;;;;;10401371;28;20434;-60
2024/02/14 00:35:15;;;;;;;4.18;3.28;;;;;;;;;;10399826;28;20104;-60
2024/02/14 00:40:16;;;;;;;5.20;3.53;;;;;;;;;;10402841;28;20099;-61
2024/02/14 00:45:16;;;;;;;5.03;3.58;;;;;;;;;;10399045;28;20029;-62
2024/02/14 00:50:17;;;;;;;3.95;3.25;;;;;;;;;;10403408;28;20052;-64
2024/02/14 00:55:18;;;;;;;8.05;3.60;;;;;;;;;;10403027;28;20096;-59
2024/02/14 01:00:18;;;;;;;6.68;3.67;;;;;;;;;;10391231;28;20474;-64
2024/02/14 01:05:19;;;;;;;3.60;3.13;;;;;;;;;;10403790;28;20159;-63
2024/02/14 01:10:20;;;;;;;5.65;3.38;;;;;;;;;;10402948;28;20448;-62
2024/02/14 01:15:21;;;;;;;4.82;3.25;;;;;;;;;;10403890;28;20072;-62
2024/02/14 01:20:23;;;;;;;4.97;3.10;;;;;;;;;;10391406;28;20443;-63
2024/02/14 01:25:24;;;;;;;4.72;2.97;;;;;;;;;;10389859;28;20030;-66
2024/02/14 01:30:25;;;;;;;5.45;3.20;;;;;;;;;;10402892;28;20022;-60
2024/02/14 01:35:26;;;;;;;3.78;2.85;;;;;;;;;;10392085;28;20026;-59
2024/02/14 01:40:26;;;;;;;3.20;2.90;;;;;;;;;;10399352;28;20080;-59
2024/02/14 01:45:29;;;;;;;10.98;3.20;;;;;;;;;;10402375;28;20109;-65
2024/02/14 01:50:31;;;;;;;4.78;3.28;;;;;;;;;;10409778;28;20063;-59
2024/02/14 01:55:33;;;;;;;4.10;3.40;;;;;;;;;;10407750;28;20029;-65
2024/02/14 02:00:35;;;;;;;4.63;3.35;;;;;;;;;;10400390;28;20034;-59
2024/02/14 02:05:36;;;;;;;3.95;3.10;;;;;;;;;;10392741;28;20026;-59
2024/02/14 02:10:37;;;;;;;3.17;2.85;;;;;;;;;;10390840;28;20032;-63
2024/02/14 02:15:38;;;;;;;4.43;3.28;;;;;;;;;;10400979;28;20036;-62
2024/02/14 02:20:38;;;;;;;5.28;3.40;;;;;;;;;;10394412;28;20495;-61
2024/02/14 02:25:39;;;;;;;5.18;3.08;;;;;;;;;;10407346;28;20080;-61
2024/02/14 02:30:40;;;;;;;9.25;3.15;;;;;;;;;;10406766;28;20025;-65
2024/02/14 02:35:44;;;;;;;4.53;2.95;;;;;;;;;;10395496;28;20033;-63
2024/02/14 02:40:45;;;;;;;3.17;2.85;;;;;;;;;;10395099;28;20052;-66
2024/02/14 02:45:46;;;;;;;3.33;2.90;;;;;;;;;;10393588;28;20477;-62
2024/02/14 02:50:49;;;;;;;4.75;2.85;;;;;;;;;;10406701;28;20091;-61
2024/02/14 02:55:51;;;;;;;4.57;3.05;;;;;;;;;;10394905;28;20175;-64
2024/02/14 03:00:55;;;;;;;3.13;2.60;;;;;;;;;;10406452;28;20037;-63
2024/02/14 03:05:56;;;;;;;4.13;3.10;;;;;;;;;;10405925;28;20485;-61
2024/02/14 03:11:00;;;;;;;3.30;2.83;;;;;;;;;;10400696;28;20033;-62
2024/02/14 03:16:01;;;;;;;3.55;2.95;;;;;;;;;;10388118;28;20397;-60
2024/02/14 03:21:02;;;;;;;3.45;2.88;;;;;;;;;;10402053;28;20065;-61
2024/02/14 03:26:07;;;;;;;4.80;3.17;;;;;;;;;;10397168;28;20067;-63
2024/02/14 03:31:07;;;;;;;4.97;3.15;;;;;;;;;;10392748;28;20032;-64
2024/02/14 03:36:08;;;;;;;4.28;2.92;;;;;;;;;;10405945;28;20485;-63
2024/02/14 03:41:09;;;;;;;3.53;2.90;;;;;;;;;;10402571;28;20481;-62
2024/02/14 03:46:09;;;;;;;3.55;2.60;;;;;;;;;;10393475;28;20029;-61
2024/02/14 03:51:11;;;;;;;3.47;2.70;;;;;;;;;;10405071;28;20061;-62
2024/02/14 03:56:14;;;;;;;2.72;2.53;;;;;;;;;;10380479;28;20408;-60
2024/02/14 04:01:15;;;;;;;3.55;2.80;;;;;;;;;;10392770;28;20037;-60
2024/02/14 04:06:16;;;;;;;3.25;2.65;;;;;;;;;;10404819;28;20455;-61
2024/02/14 04:11:17;;;;;;;2.72;2.45;;;;;;;;;;10383076;28;20069;-61
2024/02/14 04:16:21;;;;;;;4.82;2.65;;;;;;;;;;10396322;28;20029;-62
2024/02/14 04:21:21;;;;;;;4.03;2.65;;;;;;;;;;10397021;28;20046;-64
2024/02/14 04:26:22;;;;;;;3.08;2.75;;;;;;;;;;10403288;28;20034;-61
2024/02/14 04:31:23;;;;;;;3.70;3.17;;;;;;;;;;10401849;28;20030;-65
2024/02/14 04:36:24;;;;;;;3.75;2.50;;;;;;;;;;10389250;28;20025;-64
2024/02/14 04:41:24;;;;;;;2.90;2.53;;;;;;;;;;10397444;28;20552;-64
2024/02/14 04:46:25;;;;;;;3.17;2.80;;;;;;;;;;10381666;28;20030;-61
2024/02/14 04:51:25;;;;;;;2.78;2.45;;;;;;;;;;10403332;28;20037;-61
2024/02/14 04:56:27;;;;;;;2.67;2.45;;;;;;;;;;10402406;28;20083;-66
2024/02/14 05:01:27;;;;;;;4.05;2.97;;;;;;;;;;10388988;28;20044;-62
2024/02/14 05:06:28;;;;;;;3.03;2.72;;;;;;;;;;10377034;28;20029;-62
2024/02/14 05:11:29;;;;;;;3.47;2.60;;;;;;;;;;10381722;28;20025;-63
2024/02/14 05:16:29;;;;;;;3.97;2.53;;;;;;;;;;10402734;28;20075;-63
2024/02/14 05:21:30;;;;;;;3.63;2.80;;;;;;;;;;10404589;28;20025;-65
2024/02/14 05:26:30;;;;;;;3.80;2.58;;;;;;;;;;10396606;28;20048;-64
2024/02/14 05:31:44;;;;;;;2.92;2.50;;;;;;;;;;10390957;28;20029;-60
2024/02/14 05:36:45;;;;;;;2.92;2.28;;;;;;;;;;10391801;28;20052;-65
2024/02/14 05:41:46;;;;;;;3.28;2.45;;;;;;;;;;10396802;28;20033;-62
2024/02/14 05:46:47;;;;;;;3.65;2.72;;;;;;;;;;10409578;28;20026;-61
2024/02/14 05:51:49;;;;;;;2.60;2.40;;;;;;;;;;10409971;28;20037;-60
2024/02/14 05:56:50;;;;;;;2.60;2.40;;;;;;;;;;10409886;28;20037;-60
2024/02/14 06:01:51;;;;;;;3.50;2.80;;;;;;;;;;10388368;28;20034;-60
2024/02/14 06:06:51;;;;;;;2.65;2.35;;;;;;;;;;10403633;28;20077;-61
2024/02/14 06:11:52;;;;;;;3.95;2.70;;;;;;;;;;10380111;28;20064;-62
2024/02/14 06:16:53;;;;;;;2.65;2.33;;;;;;;;;;10409328;28;20124;-63
2024/02/14 06:21:53;;;;;;;2.90;2.60;;;;;;;;;;10404349;28;20473;-59
2024/02/14 06:26:54;;;;;;;7.15;2.70;;;;;;;;;;10401079;28;20025;-61
2024/02/14 06:31:55;;;;;;;5.97;2.75;;;;;;;;;;10404879;28;20025;-58
2024/02/14 06:36:55;;;;;;;6.07;3.13;;;;;;;;;;10408591;28;20049;-65
2024/02/14 06:41:57;;;;;;;6.18;3.00;;;;;;;;;;10398155;28;20614;-58
2024/02/14 06:46:57;;;;;;;7.05;3.10;;;;;;;;;;10401151;28;20029;-59
2024/02/14 06:51:58;;;;;;;4.10;2.95;;;;;;;;;;10407542;28;20033;-58
2024/02/14 06:56:59;;;;;;;9.25;3.30;;;;;;;;;;10396502;28;20034;-59
2024/02/14 07:02:01;;;;;;;5.60;3.58;;;;;;;;;;10404238;28;20052;-59
2024/02/14 07:07:01;;;;;;;7.00;3.95;;;;;;;;;;10399600;28;20029;-59
2024/02/14 07:12:02;;;;;;;9.13;3.22;;;;;;;;;;10398441;28;20421;-59
2024/02/14 07:17:03;;;;;;;9.07;3.65;;;;;;;;;;10398344;28;20029;-59
2024/02/14 07:22:03;;;;;;;6.00;3.70;;;;;;;;;;10401438;28;20124;-60
2024/02/14 07:27:04;;;;;;;7.32;3.70;;;;;;;;;;10406824;28;20116;-59
2024/02/14 07:32:06;;;;;;;12.85;3.50;;;;;;;;;;10406777;28;20045;-60
2024/02/14 07:37:06;;;;;;;6.72;3.58;;;;;;;;;;10406493;28;20136;-60
2024/02/14 07:42:07;;;;;;;9.93;3.72;;;;;;;;;;10405367;28;20392;-59
2024/02/14 07:47:08;;;;;;;7.18;3.83;;;;;;;;;;10405427;28;20030;-58
2024/02/14 07:52:08;;;;;;;5.55;3.92;;;;;;;;;;10406672;28;20029;-59
2024/02/14 07:57:09;;;;;;;7.88;3.38;;;;;;;;;;10405052;28;20028;-58
2024/02/14 08:02:09;;;;;;;6.93;3.83;;;;;;;;;;10405186;28;20039;-58
2024/02/14 08:07:10;;;;;;;9.13;4.30;;;;;;;;;;10405498;28;20033;-58
2024/02/14 08:12:11;;;;;;;5.93;3.67;;;;;;;;;;10394590;28;20030;-58
2024/02/14 08:17:11;;;;;;;12.50;4.00;;;;;;;;;;10402970;28;20041;-58
2024/02/14 08:22:12;;;;;;;9.15;3.65;;;;;;;;;;10403122;28;20029;-59
2024/02/14 08:27:12;;;;;;;6.35;3.53;;;;;;;;;;10404633;28;20501;-58
2024/02/14 08:32:13;;;;;;;7.63;3.90;;;;;;;;;;10285035;28;20970;-59
2024/02/14 08:37:17;;;;;;;4.80;3.58;;;;;;;;;;10254636;28;20037;-58
2024/02/14 08:42:19;;;;;;;4.75;3.30;;;;;;;;;;10258171;28;20029;-60
2024/02/14 08:47:19;;;;;;;4.60;3.30;;;;;;;;;;10252173;28;20514;-58
2024/02/14 08:52:21;;;;;;;8.23;3.63;;;;;;;;;;10255865;28;20235;-58
2024/02/14 08:57:22;;;;;;;4.88;3.83;;;;;;;;;;10261390;28;20029;-59
2024/02/14 09:02:25;;;;;;;8.75;4.07;;;;;;;;;;10267180;28;20110;-59
2024/02/14 09:07:26;;;;;;;8.65;3.97;;;;;;;;;;10262974;28;20033;-60
2024/02/14 09:12:26;;;;;;;7.10;3.58;;;;;;;;;;10262772;28;20021;-57
2024/02/14 09:17:27;;;;;;;5.60;3.70;;;;;;;;;;10261982;28;20029;-59
2024/02/14 09:22:28;;;;;;;6.88;3.40;;;;;;;;;;10265179;28;20450;-59
2024/02/14 09:27:29;;;;;;;5.57;3.60;;;;;;;;;;10265333;28;20029;-63
2024/02/14 09:32:32;;;;;;;5.70;3.75;;;;;;;;;;10261613;28;20540;-59
2024/02/14 09:37:33;;;;;;;5.53;4.00;;;;;;;;;;10263262;28;20435;-60
2024/02/14 09:42:50;;;;;;;6.18;3.25;;;;;;;;;;10264081;28;21922;-58
2024/02/14 09:47:52;;;;;;;6.10;3.78;;;;;;;;;;10263048;28;20490;-58
2024/02/14 09:52:54;;;;;;;5.65;3.72;;;;;;;;;;10261550;28;20029;-60
2024/02/14 09:57:56;;;;;;;4.60;3.15;;;;;;;;;;10264574;28;20036;-62
2024/02/14 10:02:59;;;;;;;5.53;3.38;;;;;;;;;;10285432;28;20029;-59
2024/02/14 10:08:01;;;;;;;7.45;3.17;;;;;;;;;;10288978;28;20439;-58
2024/02/14 10:13:06;;;;;;;6.63;3.00;;;;;;;;;;10341070;28;21493;-58
2024/02/14 10:18:09;;;;;;;4.35;3.33;;;;;;;;;;10282478;28;20030;-60
2024/02/14 10:23:11;;;;;;;6.25;3.38;;;;;;;;;;10300867;28;20477;-59
2024/02/14 10:28:12;;;;;;;4.30;2.90;;;;;;;;;;10410098;28;20029;-59
2024/02/14 10:33:15;;;;;;;4.90;3.28;;;;;;;;;;10407617;28;20014;-59
2024/02/14 10:38:18;;;;;;;4.55;3.10;;;;;;;;;;10409118;28;20050;-60
2024/02/14 10:43:19;;;;;;;3.10;2.80;;;;;;;;;;10407067;28;20045;-58
2024/02/14 10:48:25;;;;;;;4.10;2.58;;;;;;;;;;10396437;28;22348;-59
2024/02/14 10:53:27;;;;;;;4.43;3.15;;;;;;;;;;10355539;28;20048;-58
2024/02/14 10:58:30;;;;;;;3.42;3.00;;;;;;;;;;10350665;28;20030;-59
2024/02/14 11:03:31;;;;;;;3.08;2.75;;;;;;;;;;10398820;28;20048;-59
2024/02/14 11:08:33;;;;;;;3.28;2.88;;;;;;;;;;10338418;28;20029;-59
2024/02/14 11:13:35;;;;;;;3.88;2.70;;;;;;;;;;10328101;28;20094;-58
2024/02/14 11:18:37;;;;;;;5.20;2.80;;;;;;;;;;10387456;28;20093;-61
2024/02/14 11:23:38;;;;;;;4.10;3.00;;;;;;;;;;10374959;28;20084;-59
2024/02/14 11:28:40;;;;;;;3.10;2.40;;;;;;;;;;10402591;28;20026;-59
2024/02/14 11:33:40;;;;;;;5.10;2.80;;;;;;;;;;10406466;28;20396;-59
2024/02/14 11:38:41;;;;;;;4.18;3.10;;;;;;;;;;10399479;23;20047;-60
2024/02/14 11:43:51;;;;;;;5.35;2.70;;;;;;;;;;10292034;28;20088;-59
2024/02/14 11:48:53;;;;;;;3.80;2.75;;;;;;;;;;10340425;28;20402;-60
2024/02/14 11:53:54;;;;;;;3.70;2.85;;;;;;;;;;10297729;28;20033;-60
2024/02/14 11:58:56;;;;;;;3.70;2.78;;;;;;;;;;10336032;28;20394;-60
2024/02/14 12:04:00;;;;;;;4.63;2.80;;;;;;;;;;10301332;28;20058;-60
2024/02/14 12:09:05;;;;;;;5.10;2.88;;;;;;;;;;10329985;28;20034;-59
2024/02/14 12:14:10;;;;;;;5.18;2.78;;;;;;;;;;10336525;28;20030;-60
2024/02/14 12:19:17;;;;;;;3.22;2.63;;;;;;;;;;10327025;28;20113;-60
2024/02/14 12:24:17;;;;;;;3.90;2.78;;;;;;;;;;10288743;28;20026;-60
2024/02/14 12:29:18;;;;;;;6.40;2.67;;;;;;;;;;10320331;28;20022;-59
2024/02/14 12:34:20;;;;;;;3.00;2.67;;;;;;;;;;10322215;28;20034;-60
2024/02/14 12:39:21;;;;;;;3.47;2.72;;;;;;;;;;10313526;28;20487;-59
2024/02/14 12:44:23;;;;;;;3.55;2.80;;;;;;;;;;10323628;28;20043;-60
2024/02/14 12:49:26;;;;;;;5.13;2.58;;;;;;;;;;10218201;28;20446;-59
2024/02/14 12:54:26;;;;;;;3.15;2.40;;;;;;;;;;10327125;28;20096;-59
2024/02/14 12:59:27;;;;;;;3.58;2.35;;;;;;;;;;10329198;28;20538;-59
2024/02/14 13:04:27;;;;;;;2.72;2.50;;;;;;;;;;10337121;28;20037;-61
2024/02/14 13:09:28;;;;;;;2.80;2.35;;;;;;;;;;10329720;28;20026;-61
2024/02/14 13:14:32;;;;;;;2.70;2.38;;;;;;;;;;10279509;28;20394;-62
2024/02/14 13:19:33;;;;;;;3.65;2.92;;;;;;;;;;10285967;28;20042;-62
2024/02/14 13:24:33;;;;;;;2.85;2.35;;;;;;;;;;10333293;28;20048;-59
2024/02/14 13:29:34;;;;;;;2.50;2.30;;;;;;;;;;10330290;28;20038;-59
2024/02/14 13:34:35;;;;;;;2.60;2.40;;;;;;;;;;10334224;28;20026;-61
2024/02/14 13:39:35;;;;;;;2.63;2.38;;;;;;;;;;10301117;28;20058;-61
2024/02/14 13:44:36;;;;;;;3.65;2.38;;;;;;;;;;10313141;28;20132;-61
2024/02/14 13:49:36;;;;;;;2.35;2.15;;;;;;;;;;10311938;28;20398;-61
2024/02/14 13:54:37;;;;;;;3.60;2.35;;;;;;;;;;10322863;28;20033;-61
2024/02/14 13:59:38;;;;;;;2.85;2.45;;;;;;;;;;10304693;28;20065;-61
2024/02/14 14:04:38;;;;;;;3.25;2.45;;;;;;;;;;10302903;28;20034;-61
2024/02/14 14:09:39;;;;;;;4.22;2.15;;;;;;;;;;10288527;28;20027;-61
2024/02/14 14:14:39;;;;;;;2.95;2.35;;;;;;;;;;10314316;28;20030;-61
2024/02/14 14:19:40;;;;;;;2.97;2.35;;;;;;;;;;10318260;28;20038;-61
2024/02/14 14:24:40;;;;;;;5.30;2.50;;;;;;;;;;10304442;28;20023;-61
2024/02/14 14:29:42;;;;;;;5.07;2.33;;;;;;;;;;10261252;28;20027;-61
2024/02/14 14:34:43;;;;;;;3.03;2.45;;;;;;;;;;10318544;28;20029;-61
2024/02/14 14:39:44;;;;;;;2.38;2.17;;;;;;;;;;10328179;28;20049;-62
2024/02/14 14:44:45;;;;;;;3.30;2.50;;;;;;;;;;10320040;28;20406;-62
2024/02/14 14:49:45;;;;;;;4.35;2.40;;;;;;;;;;10325785;28;20042;-61
2024/02/14 14:54:46;;;;;;;3.95;2.65;;;;;;;;;;10305182;28;21665;-62
2024/02/14 14:59:47;;;;;;;5.00;2.08;;;;;;;;;;10308579;28;20108;-61
2024/02/14 15:04:47;;;;;;;2.40;2.20;;;;;;;;;;10310576;28;20049;-61
2024/02/14 15:09:48;;;;;;;3.65;2.45;;;;;;;;;;10298643;28;20112;-62
2024/02/14 15:14:48;;;;;;;3.50;2.20;;;;;;;;;;10301239;28;20442;-62
2024/02/14 15:19:49;;;;;;;4.43;2.70;;;;;;;;;;10289891;28;20353;-61
2024/02/14 15:24:51;;;;;;;3.13;2.40;;;;;;;;;;10323141;28;20034;-61
2024/02/14 15:35:10;;;;;;;5.93;2.17;;;;;;;;;;10281667;28;20104;-61
2024/02/14 15:40:12;;;;;;;3.75;2.28;;;;;;;;;;10320154;28;20049;-61
2024/02/14 15:45:16;;;;;;;3.22;2.40;;;;;;;;;;10305307;28;20034;-61
2024/02/14 15:50:17;;;;;;;2.65;2.35;;;;;;;;;;10225372;28;20642;-61
2024/02/14 15:55:17;;;;;;;3.92;2.30;;;;;;;;;;10193731;28;20059;-61
2024/02/14 16:00:18;;;;;;;2.28;2.05;;;;;;;;;;10305422;28;20409;-61
2024/02/14 16:05:20;;;;;;;2.88;2.38;;;;;;;;;;10297484;28;20021;-61
2024/02/14 16:10:21;;;;;;;3.67;2.22;;;;;;;;;;10299328;28;20474;-61
2024/02/14 16:15:22;;;;;;;8.00;2.30;;;;;;;;;;10294781;28;21695;-61
2024/02/14 16:20:22;;;;;;;4.15;2.00;;;;;;;;;;10311311;28;20394;-61
2024/02/14 16:25:25;;;;;;;3.25;2.50;;;;;;;;;;10327469;28;20096;-61
2024/02/14 16:30:26;;;;;;;6.97;2.50;;;;;;;;;;10346305;28;20526;-61
2024/02/14 16:35:30;;;;;;;3.72;2.58;;;;;;;;;;10323830;28;20022;-61
2024/02/14 16:40:32;;;;;;;10.60;2.65;;;;;;;;;;10287017;28;20054;-61
2024/02/14 16:45:34;;;;;;;4.50;2.60;;;;;;;;;;10343554;28;20426;-61
2024/02/14 16:50:34;;;;;;;2.75;2.35;;;;;;;;;;10308496;28;20038;-61
2024/02/14 16:55:36;;;;;;;4.93;2.70;;;;;;;;;;10285545;28;20019;-61
2024/02/14 17:00:37;;;;;;;5.30;2.33;;;;;;;;;;10310859;28;20429;-61
2024/02/14 17:05:39;;;;;;;2.58;2.13;;;;;;;;;;10318289;28;20037;-61
2024/02/14 17:10:39;;;;;;;3.40;2.50;;;;;;;;;;10316579;28;20081;-61
2024/02/14 17:15:40;;;;;;;4.05;2.22;;;;;;;;;;10330625;28;20045;-61
2024/02/14 17:20:42;;;;;;;2.40;2.20;;;;;;;;;;10263287;28;20030;-61
2024/02/14 17:25:43;;;;;;;6.15;2.38;;;;;;;;;;10289048;28;20038;-61
2024/02/14 17:30:44;;;;;;;10.75;2.67;;;;;;;;;;10316070;28;20037;-61
2024/02/14 17:35:45;;;;;;;5.68;2.22;;;;;;;;;;10230063;28;20041;-61
2024/02/14 17:40:45;;;;;;;3.38;2.42;;;;;;;;;;10181480;28;20093;-61
2024/02/14 17:45:46;;;;;;;2.78;2.58;;;;;;;;;;10180519;28;20041;-61
2024/02/14 17:50:48;;;;;;;5.05;2.55;;;;;;;;;;10219939;28;20501;-61
2024/02/14 17:55:49;;;;;;;4.03;2.67;;;;;;;;;;10331018;28;20028;-60
2024/02/14 18:00:50;;;;;;;3.13;2.35;;;;;;;;;;10332913;28;20367;-61
2024/02/14 18:05:50;;;;;;;6.68;2.17;;;;;;;;;;10329336;28;20470;-61
2024/02/14 18:10:52;;;;;;;5.20;2.50;;;;;;;;;;10330052;28;20073;-61
2024/02/14 18:15:52;;;;;;;9.80;2.60;;;;;;;;;;10326213;28;20490;-61
2024/02/14 18:20:53;;;;;;;3.53;2.50;;;;;;;;;;10327145;28;20034;-61
2024/02/14 18:25:53;;;;;;;2.90;2.15;;;;;;;;;;10327163;28;20046;-61
2024/02/14 18:30:55;;;;;;;4.20;2.60;;;;;;;;;;10332146;28;20031;-61
2024/02/14 18:35:56;;;;;;;5.82;2.40;;;;;;;;;;10319104;28;20031;-61
2024/02/14 18:41:00;;;;;;;9.60;3.65;;;;;;;;;;10332394;28;20049;-61
2024/02/14 18:46:01;;;;;;;11.13;4.40;;;;;;;;;;10334843;28;20517;-61
2024/02/14 18:51:02;;;;;;;10.50;4.75;;;;;;;;;;10336861;28;20113;-60
2024/02/14 18:56:04;;;;;;;16.25;5.30;;;;;;;;;;10326741;28;20423;-62
2024/02/14 19:01:04;;;;;;;8.43;4.60;;;;;;;;;;10328468;28;20034;-61
2024/02/14 19:06:05;;;;;;;12.18;5.13;;;;;;;;;;10323296;28;20030;-61
2024/02/14 19:11:06;;;;;;;9.90;4.95;;;;;;;;;;10334586;28;20030;-60
2024/02/14 19:16:07;;;;;;;23.50;5.25;;;;;;;;;;10323423;28;20039;-60
2024/02/14 19:21:07;;;;;;;12.07;5.50;;;;;;;;;;10334863;28;20081;-60
2024/02/14 19:26:08;;;;;;;11.85;5.38;;;;;;;;;;10320891;28;20405;-60
2024/02/14 19:31:08;;;;;;;11.68;5.00;;;;;;;;;;10338535;28;20026;-60
2024/02/14 19:36:09;;;;;;;6.60;4.25;;;;;;;;;;10344783;28;20028;-60
2024/02/14 19:41:10;;;;;;;9.32;5.20;;;;;;;;;;10347830;28;20113;-60
2024/02/14 19:46:11;;;;;;;11.38;5.00;;;;;;;;;;10328297;28;20030;-60
2024/02/14 19:51:11;;;;;;;10.05;5.18;;;;;;;;;;10332219;28;20430;-60
2024/02/14 19:56:12;;;;;;;9.77;4.68;;;;;;;;;;10298360;28;20397;-60
2024/02/14 20:01:12;;;;;;;8.77;5.05;;;;;;;;;;10340849;28;20544;-60
2024/02/14 20:06:13;;;;;;;9.40;5.25;;;;;;;;;;10222828;28;20105;-60
2024/02/14 20:11:14;;;;;;;9.68;5.03;;;;;;;;;;10282510;28;20049;-60
2024/02/14 20:16:15;;;;;;;10.63;5.18;;;;;;;;;;10323583;28;20371;-61
2024/02/14 20:21:16;;;;;;;9.20;5.20;;;;;;;;;;10340658;28;20045;-60
2024/02/14 20:26:18;;;;;;;6.40;4.75;;;;;;;;;;10342780;28;20470;-60
2024/02/14 20:31:19;;;;;;;7.53;4.93;;;;;;;;;;10342236;28;20081;-60
2024/02/14 20:36:20;;;;;;;9.30;5.43;;;;;;;;;;10345297;28;20037;-60
2024/02/14 20:41:22;;;;;;;9.65;5.13;;;;;;;;;;10329787;28;20065;-60
2024/02/14 20:46:26;;;;;;;10.55;5.53;;;;;;;;;;10352756;28;20034;-61
2024/02/14 20:51:28;;;;;;;11.50;5.15;;;;;;;;;;10318372;28;20448;-61
2024/02/14 20:56:29;;;;;;;10.00;5.07;;;;;;;;;;10325845;28;20036;-61
2024/02/14 21:01:30;;;;;;;8.77;5.20;;;;;;;;;;10330611;28;20112;-61
2024/02/14 21:06:31;;;;;;;9.82;5.38;;;;;;;;;;10347218;28;20034;-61
2024/02/14 21:11:32;;;;;;;19.17;6.35;;;;;;;;;;10313298;28;20084;-60
2024/02/14 21:16:33;;;;;;;25.10;7.18;;;;;;;;;;10323145;28;20443;-60
2024/02/14 21:21:35;;;;;;;25.00;7.63;;;;;;;;;;10321455;28;20050;-60
2024/02/14 21:26:36;;;;;;;18.55;7.07;;;;;;;;;;10319125;28;20025;-60
2024/02/14 21:31:37;;;;;;;21.45;7.07;;;;;;;;;;10315478;28;20030;-60
2024/02/14 21:36:37;;;;;;;19.85;6.20;;;;;;;;;;10334807;28;20023;-61
2024/02/14 21:41:38;;;;;;;21.80;6.50;;;;;;;;;;10341083;28;20046;-60
2024/02/14 21:46:39;;;;;;;25.80;7.95;;;;;;;;;;10324360;28;20110;-61
2024/02/14 21:51:40;;;;;;;14.82;6.20;;;;;;;;;;10338138;28;20033;-61
2024/02/14 21:56:41;;;;;;;13.25;5.25;;;;;;;;;;10323390;28;20049;-61
2024/02/14 22:01:41;;;;;;;15.60;6.30;;;;;;;;;;10323573;28;20045;-60
2024/02/14 22:06:42;;;;;;;14.10;6.55;;;;;;;;;;10320950;28;20027;-60
2024/02/14 22:11:42;;;;;;;20.55;5.63;;;;;;;;;;10315595;28;20037;-60
2024/02/14 22:16:43;;;;;;;15.38;5.90;;;;;;;;;;10307194;28;20035;-61
2024/02/14 22:21:45;;;;;;;14.73;6.32;;;;;;;;;;10271721;28;20080;-61
2024/02/14 22:26:46;;;;;;;13.10;5.90;;;;;;;;;;10286054;28;20505;-60
2024/02/14 22:31:48;;;;;;;20.38;6.50;;;;;;;;;;10176149;28;20080;-59
2024/02/14 22:36:49;;;;;;;18.08;5.93;;;;;;;;;;10175818;28;20041;-59
2024/02/14 22:41:49;;;;;;;13.98;6.55;;;;;;;;;;10174078;28;20081;-59
2024/02/14 22:46:51;;;;;;;13.27;5.93;;;;;;;;;;10177829;28;20061;-59
2024/02/14 22:51:52;;;;;;;18.35;6.10;;;;;;;;;;10175620;28;20146;-60
2024/02/14 22:56:53;;;;;;;12.80;6.30;;;;;;;;;;10173934;28;20038;-59
2024/02/14 23:01:54;;;;;;;12.15;6.30;;;;;;;;;;10170511;28;20456;-59
2024/02/14 23:06:54;;;;;;;10.20;5.63;;;;;;;;;;10167566;28;20147;-62
2024/02/14 23:11:55;;;;;;;14.23;5.78;;;;;;;;;;10170598;28;20165;-60
2024/02/14 23:16:56;;;;;;;19.63;6.47;;;;;;;;;;10171458;28;20126;-60
2024/02/14 23:21:56;;;;;;;9.95;5.90;;;;;;;;;;10176756;28;20448;-59
2024/02/14 23:26:57;;;;;;;11.48;6.18;;;;;;;;;;10175334;28;20113;-59
2024/02/14 23:31:58;;;;;;;13.15;6.30;;;;;;;;;;10172279;28;21737;-59
2024/02/14 23:37:00;;;;;;;11.15;5.68;;;;;;;;;;10295656;28;20030;-59
2024/02/14 23:42:02;;;;;;;17.77;5.63;;;;;;;;;;10316774;28;20056;-59
2024/02/14 23:47:03;;;;;;;10.35;5.95;;;;;;;;;;10344258;28;20049;-59
2024/02/14 23:52:04;;;;;;;13.02;6.28;;;;;;;;;;10355736;28;20032;-60
2024/02/14 23:57:05;;;;;;;11.27;5.45;;;;;;;;;;10331477;28;20034;-60
